createdAt,value
2022-08-01T00:00:09.945Z,13.10
2022-08-01T00:02:39.447Z,16.75
2022-08-01T00:05:07.681Z,12.18
2022-08-01T00:07:38.099Z,12.48
2022-08-01T00:10:12.506Z,11.98
2022-08-01T00:12:40.334Z,16.52
2022-08-01T00:15:08.867Z,11.27
2022-08-01T00:17:36.224Z,12.02
2022-08-01T00:20:04.551Z,11.80
2022-08-01T00:22:32.925Z,14.13
2022-08-01T00:24:59.677Z,10.25
2022-08-01T00:27:27.167Z,15.35
2022-08-01T00:30:13.435Z,11.93
2022-08-01T00:32:42.522Z,12.48
2022-08-01T00:35:09.480Z,15.13
2022-08-01T00:37:36.806Z,8.48
2022-08-01T00:40:04.102Z,12.88
2022-08-01T00:42:31.425Z,11.63
2022-08-01T00:44:58.201Z,11.45
2022-08-01T00:47:25.527Z,9.68
2022-08-01T00:49:52.308Z,14.43
2022-08-01T00:52:19.846Z,11.48
2022-08-01T00:54:46.778Z,14.90
2022-08-01T00:57:15.151Z,10.55
2022-08-01T00:59:42.322Z,9.85
2022-08-01T01:02:15.353Z,12.82
2022-08-01T01:04:43.393Z,16.23
2022-08-01T01:07:53.982Z,14.27
2022-08-01T01:10:37.606Z,14.18
2022-08-01T01:13:18.963Z,15.63
2022-08-01T01:15:52.082Z,18.52
2022-08-01T01:18:26.101Z,15.80
2022-08-01T01:21:21.239Z,14.75
2022-08-01T01:24:21.453Z,12.80
2022-08-01T01:26:54.539Z,13.82
2022-08-01T01:29:30.102Z,12.13
2022-08-01T01:32:40.482Z,14.07
2022-08-01T01:35:11.532Z,21.13
2022-08-01T01:37:41.507Z,19.10
2022-08-01T01:40:10.599Z,24.80
2022-08-01T01:42:38.312Z,17.48
2022-08-01T01:45:06.375Z,23.23
2022-08-01T01:47:35.467Z,28.92
2022-08-01T01:50:03.125Z,21.85
2022-08-01T01:52:32.971Z,21.70
2022-08-01T01:55:02.301Z,18.88
2022-08-01T01:57:31.111Z,23.52
2022-08-01T01:59:58.792Z,15.70
2022-08-01T02:02:26.521Z,19.10
2022-08-01T02:04:54.937Z,19.05
2022-08-01T02:07:24.982Z,19.80
2022-08-01T02:09:53.889Z,21.88
2022-08-01T02:12:22.587Z,24.75
2022-08-01T02:14:53.225Z,20.38
2022-08-01T02:17:21.710Z,25.23
2022-08-01T02:19:49.089Z,23.33
2022-08-01T02:23:03.961Z,23.67
2022-08-01T02:26:10.272Z,23.77
2022-08-01T02:28:37.546Z,22.52
2022-08-01T02:31:07.557Z,30.10
2022-08-01T02:33:45.950Z,24.73
2022-08-01T02:36:30.490Z,25.70
2022-08-01T02:39:02.682Z,22.90
2022-08-01T02:41:30.974Z,24.70
2022-08-01T02:44:02.755Z,24.83
2022-08-01T02:46:51.091Z,25.70
2022-08-01T02:49:21.898Z,25.88
2022-08-01T02:51:49.911Z,23.15
2022-08-01T02:54:18.411Z,30.42
2022-08-01T02:56:48.052Z,23.63
2022-08-01T02:59:20.441Z,24.55
2022-08-01T03:01:50.833Z,20.80
2022-08-01T03:04:19.682Z,29.20
2022-08-01T03:06:48.988Z,24.33
2022-08-01T03:09:17.180Z,32.72
2022-08-01T03:11:46.596Z,30.13
2022-08-01T03:14:15.254Z,30.95
2022-08-01T03:16:45.570Z,35.17
2022-08-01T03:19:14.429Z,34.13
2022-08-01T03:21:43.533Z,32.03
2022-08-01T03:24:12.282Z,39.10
2022-08-01T03:26:40.377Z,31.20
2022-08-01T03:29:11.466Z,28.98
2022-08-01T03:31:43.512Z,35.92
2022-08-01T03:34:10.793Z,33.40
2022-08-01T03:36:47.518Z,38.35
2022-08-01T03:39:19.533Z,32.50
2022-08-01T03:41:57.149Z,37.13
2022-08-01T03:44:28.138Z,42.42
2022-08-01T03:47:01.651Z,38.50
2022-08-01T03:49:32.804Z,44.65
2022-08-01T03:52:05.497Z,41.15
2022-08-01T03:57:02.912Z,46.20
2022-08-01T03:59:31.515Z,38.13
2022-08-01T04:01:59.889Z,42.40
2022-08-01T04:04:27.250Z,48.15
2022-08-01T04:06:55.097Z,45.80
2022-08-01T04:09:22.798Z,46.20
2022-08-01T04:11:50.016Z,45.60
2022-08-01T04:14:17.114Z,42.03
2022-08-01T04:16:44.539Z,34.83
2022-08-01T04:19:12.363Z,49.38
2022-08-01T04:21:39.576Z,39.60
2022-08-01T04:24:18.516Z,39.80
2022-08-01T04:26:48.437Z,44.25
2022-08-01T04:29:18.342Z,39.30
2022-08-01T04:31:47.208Z,45.70
2022-08-01T04:34:17.645Z,39.47
2022-08-01T04:36:46.625Z,43.25
2022-08-01T04:39:15.633Z,38.53
2022-08-01T04:41:42.912Z,38.85
2022-08-01T04:44:09.941Z,38.40
2022-08-01T04:46:38.581Z,37.55
2022-08-01T04:49:12.585Z,33.80
2022-08-01T04:51:51.922Z,42.17
2022-08-01T04:54:19.518Z,44.75
2022-08-01T04:56:46.863Z,40.50
2022-08-01T04:59:37.249Z,41.42
2022-08-01T05:02:04.514Z,37.45
2022-08-01T05:04:31.798Z,35.38
2022-08-01T05:06:58.424Z,34.58
2022-08-01T05:09:30.753Z,38.80
2022-08-01T05:11:59.806Z,34.42
2022-08-01T05:14:26.804Z,36.03
2022-08-01T05:16:53.810Z,39.20
2022-08-01T05:19:21.454Z,43.22
2022-08-01T05:21:48.687Z,34.63
2022-08-01T05:24:15.663Z,42.92
2022-08-01T05:26:43.793Z,33.75
2022-08-01T05:29:11.432Z,36.40
2022-08-01T05:31:38.415Z,37.40
2022-08-01T05:34:05.456Z,37.55
2022-08-01T05:36:32.516Z,41.05
2022-08-01T05:38:59.755Z,33.88
2022-08-01T05:41:27.415Z,35.33
2022-08-01T05:43:54.703Z,38.05
2022-08-01T05:46:21.364Z,32.30
2022-08-01T05:48:51.018Z,35.67
2022-08-01T05:51:17.928Z,33.95
2022-08-01T05:53:45.241Z,35.63
2022-08-01T05:56:11.943Z,29.58
2022-08-01T05:58:39.228Z,31.67
2022-08-01T06:01:06.025Z,28.10
2022-08-01T06:03:34.488Z,31.00
2022-08-01T06:06:01.893Z,31.42
2022-08-01T06:08:29.568Z,22.92
2022-08-01T06:10:56.890Z,25.35
2022-08-01T06:13:24.252Z,32.88
2022-08-01T06:15:51.357Z,27.85
2022-08-01T06:18:19.368Z,27.05
2022-08-01T06:20:46.085Z,29.38
2022-08-01T06:23:32.334Z,26.90
2022-08-01T06:26:00.034Z,29.35
2022-08-01T06:28:27.393Z,30.20
2022-08-01T06:30:54.264Z,29.65
2022-08-01T06:33:21.695Z,26.45
2022-08-01T06:35:48.683Z,24.17
2022-08-01T06:38:15.673Z,32.08
2022-08-01T06:40:42.802Z,24.73
2022-08-01T06:43:12.168Z,24.83
2022-08-01T06:45:42.137Z,21.52
2022-08-01T06:48:09.201Z,19.42
2022-08-01T06:50:37.307Z,20.17
2022-08-01T06:53:04.686Z,21.10
2022-08-01T06:55:31.750Z,19.67
2022-08-01T06:57:58.813Z,18.02
2022-08-01T07:00:26.722Z,23.38
2022-08-01T07:02:59.455Z,18.48
2022-08-01T07:05:27.163Z,20.70
2022-08-01T07:07:54.479Z,20.15
2022-08-01T07:10:21.507Z,19.15
2022-08-01T07:12:48.575Z,21.83
2022-08-01T07:15:16.485Z,20.45
2022-08-01T07:17:43.888Z,24.33
2022-08-01T07:20:16.088Z,22.13
2022-08-01T07:22:43.497Z,22.27
2022-08-01T07:25:10.694Z,25.95
2022-08-01T07:27:38.347Z,19.52
2022-08-01T07:30:06.731Z,16.35
2022-08-01T07:32:34.612Z,17.25
2022-08-01T07:35:02.653Z,17.23
2022-08-01T07:37:42.512Z,12.55
2022-08-01T07:40:16.989Z,12.45
2022-08-01T07:42:44.361Z,11.57
2022-08-01T07:45:12.472Z,16.58
2022-08-01T07:47:39.195Z,10.40
2022-08-01T07:50:07.635Z,12.38
2022-08-01T07:52:34.521Z,10.13
2022-08-01T07:55:01.836Z,11.68
2022-08-01T07:57:28.537Z,10.02
2022-08-01T07:59:56.033Z,9.90
2022-08-01T08:02:22.726Z,12.13
2022-08-01T08:04:50.068Z,14.20
2022-08-01T08:07:17.272Z,13.20
2022-08-01T08:09:44.633Z,10.73
2022-08-01T08:12:17.789Z,10.57
2022-08-01T08:14:45.511Z,14.50
2022-08-01T08:17:12.182Z,15.70
2022-08-01T08:19:40.007Z,13.50
2022-08-01T08:22:08.627Z,10.00
2022-08-01T08:24:37.301Z,11.98
2022-08-01T08:27:13.391Z,12.02
2022-08-01T08:29:40.138Z,9.13
2022-08-01T08:32:08.323Z,9.40
2022-08-01T08:34:35.392Z,8.02
2022-08-01T08:37:02.250Z,9.63
2022-08-01T08:39:30.826Z,10.32
2022-08-01T08:42:09.536Z,9.88
2022-08-01T08:44:36.451Z,9.35
2022-08-01T08:47:09.335Z,12.38
2022-08-01T08:52:08.742Z,11.43
2022-08-01T08:54:37.792Z,8.75
2022-08-01T08:57:06.246Z,8.50
2022-08-01T08:59:33.592Z,9.93
2022-08-01T09:02:00.991Z,10.00
2022-08-01T09:04:27.915Z,6.80
2022-08-01T09:06:55.941Z,7.95
2022-08-01T09:09:23.873Z,6.10
2022-08-01T09:11:56.631Z,7.20
2022-08-01T09:14:36.078Z,8.55
2022-08-01T09:17:09.854Z,7.82
2022-08-01T09:19:41.417Z,6.03
2022-08-01T09:22:19.036Z,5.63
2022-08-01T09:25:00.366Z,7.47
2022-08-01T09:27:27.311Z,5.30
2022-08-01T09:30:00.791Z,6.55
2022-08-01T09:32:36.552Z,5.90
2022-08-01T09:35:31.265Z,5.78
2022-08-01T09:38:14.356Z,7.38
2022-08-01T09:40:53.785Z,8.85
2022-08-01T09:43:22.509Z,6.15
2022-08-01T09:45:53.259Z,5.60
2022-08-01T09:48:22.468Z,5.35
2022-08-01T09:50:53.806Z,3.30
2022-08-01T09:53:29.658Z,4.45
2022-08-01T09:56:10.813Z,5.03
2022-08-01T09:59:02.104Z,3.22
2022-08-01T10:01:43.128Z,3.15
2022-08-01T10:04:12.779Z,3.60
2022-08-01T10:06:43.461Z,3.75
2022-08-01T10:09:14.634Z,3.65
2022-08-01T10:11:44.942Z,2.60
2022-08-01T10:14:17.802Z,4.20
2022-08-01T10:16:53.474Z,3.60
2022-08-01T10:19:24.753Z,5.35
2022-08-01T10:21:58.369Z,3.38
2022-08-01T10:24:29.193Z,4.72
2022-08-01T10:27:08.406Z,5.32
2022-08-01T10:29:59.094Z,5.82
2022-08-01T10:32:32.021Z,3.30
2022-08-01T10:35:06.225Z,3.22
2022-08-01T10:37:52.264Z,2.55
2022-08-01T10:40:37.007Z,2.78
2022-08-01T10:43:04.410Z,4.72
2022-08-01T10:45:32.518Z,1.98
2022-08-01T10:48:12.162Z,1.98
2022-08-01T10:50:48.579Z,2.08
2022-08-01T10:53:31.199Z,3.50
2022-08-01T10:56:11.021Z,2.80
2022-08-01T10:58:44.119Z,3.90
2022-08-01T11:01:16.999Z,6.55
2022-08-01T11:03:58.354Z,3.05
2022-08-01T11:06:35.563Z,1.40
2022-08-01T11:09:06.170Z,2.88
2022-08-01T11:11:53.811Z,3.22
2022-08-01T11:14:26.296Z,3.17
2022-08-01T11:16:53.334Z,2.28
2022-08-01T11:19:20.618Z,2.83
2022-08-01T11:21:57.956Z,2.20
2022-08-01T11:24:50.577Z,2.28
2022-08-01T11:27:20.558Z,3.20
2022-08-01T11:30:12.953Z,2.53
2022-08-01T11:33:12.103Z,2.75
2022-08-01T11:36:11.227Z,1.20
2022-08-01T11:38:39.529Z,3.17
2022-08-01T11:41:23.519Z,3.17
2022-08-01T11:44:14.281Z,1.77
2022-08-01T11:46:57.274Z,3.65
2022-08-01T11:49:36.919Z,4.47
2022-08-01T11:52:08.862Z,2.20
2022-08-01T11:54:41.526Z,2.58
2022-08-01T11:57:12.624Z,5.05
2022-08-01T12:00:02.833Z,6.22
2022-08-01T12:02:39.035Z,4.78
2022-08-01T12:05:11.638Z,3.72
2022-08-01T12:07:42.245Z,4.85
2022-08-01T12:10:14.892Z,3.15
2022-08-01T12:12:44.908Z,3.05
2022-08-01T12:15:13.397Z,3.53
2022-08-01T12:18:00.211Z,4.30
2022-08-01T12:20:33.636Z,3.13
2022-08-01T12:23:02.477Z,4.95
2022-08-01T12:25:29.986Z,3.80
2022-08-01T12:28:02.118Z,3.13
2022-08-01T12:30:32.091Z,4.80
2022-08-01T12:32:58.917Z,4.10
2022-08-01T12:35:27.565Z,4.72
2022-08-01T12:38:16.033Z,3.42
2022-08-01T12:40:46.014Z,2.95
2022-08-01T12:43:21.318Z,4.88
2022-08-01T12:45:58.349Z,2.22
2022-08-01T12:48:25.493Z,2.67
2022-08-01T12:50:54.012Z,1.58
2022-08-01T12:53:22.085Z,2.65
2022-08-01T12:55:59.495Z,3.83
2022-08-01T12:58:34.263Z,1.83
2022-08-01T13:01:07.703Z,4.18
2022-08-01T13:03:35.172Z,2.28
2022-08-01T13:06:02.742Z,2.15
2022-08-01T13:08:34.575Z,2.55
2022-08-01T13:11:07.064Z,5.85
2022-08-01T13:13:40.998Z,6.82
2022-08-01T13:16:16.241Z,2.38
2022-08-01T13:18:57.855Z,1.92
2022-08-01T13:21:26.775Z,4.03
2022-08-01T13:24:13.794Z,3.30
2022-08-01T13:26:46.731Z,5.35
2022-08-01T13:31:45.875Z,3.45
2022-08-01T13:34:12.695Z,4.25
2022-08-01T13:36:48.405Z,5.70
2022-08-01T13:39:35.136Z,3.63
2022-08-01T13:42:02.583Z,2.33
2022-08-01T13:44:29.766Z,2.35
2022-08-01T13:46:57.289Z,2.30
2022-08-01T13:49:24.290Z,4.32
2022-08-01T13:51:51.804Z,4.72
2022-08-01T13:54:18.987Z,3.50
2022-08-01T13:56:46.009Z,4.53
2022-08-01T13:59:13.692Z,2.67
2022-08-01T14:01:40.826Z,3.08
2022-08-01T14:04:07.657Z,3.65
2022-08-01T14:06:35.916Z,3.97
2022-08-01T14:09:04.408Z,3.03
2022-08-01T14:11:45.851Z,3.92
2022-08-01T14:14:13.289Z,4.22
2022-08-01T14:16:40.341Z,4.63
2022-08-01T14:19:07.323Z,5.05
2022-08-01T14:21:34.579Z,5.72
2022-08-01T14:24:01.559Z,3.10
2022-08-01T14:26:28.603Z,4.20
2022-08-01T14:28:55.583Z,8.68
2022-08-01T14:31:22.634Z,7.05
2022-08-01T14:33:49.355Z,3.50
2022-08-01T14:36:29.055Z,4.07
2022-08-01T14:39:00.098Z,4.25
2022-08-01T14:41:27.950Z,3.20
2022-08-01T14:43:54.737Z,3.10
2022-08-01T14:46:21.717Z,4.15
2022-08-01T14:48:48.372Z,4.75
2022-08-01T14:51:15.534Z,2.00
2022-08-01T14:53:46.946Z,3.40
2022-08-01T14:56:18.161Z,2.13
2022-08-01T14:58:44.892Z,3.35
2022-08-01T15:01:11.993Z,3.05
2022-08-01T15:03:39.048Z,4.15
2022-08-01T15:06:07.257Z,6.47
2022-08-01T15:08:34.464Z,1.30
2022-08-01T15:11:02.423Z,4.13
2022-08-01T15:13:29.120Z,2.53
2022-08-01T15:16:00.167Z,2.17
2022-08-01T15:18:28.685Z,1.83
2022-08-01T15:20:58.057Z,2.83
2022-08-01T15:23:24.792Z,2.72
2022-08-01T15:25:51.448Z,3.65
2022-08-01T15:28:18.186Z,2.75
2022-08-01T15:30:45.990Z,2.65
2022-08-01T15:33:13.291Z,5.15
2022-08-01T15:35:39.966Z,3.92
2022-08-01T15:38:06.637Z,5.30
2022-08-01T15:40:35.284Z,7.43
2022-08-01T15:43:02.589Z,4.90
2022-08-01T15:48:17.894Z,2.33
2022-08-01T15:50:44.874Z,4.03
2022-08-01T15:53:12.293Z,5.78
2022-08-01T15:55:39.815Z,1.98
2022-08-01T15:58:07.877Z,4.07
2022-08-01T16:00:38.954Z,2.75
2022-08-01T16:03:07.940Z,4.53
2022-08-01T16:05:39.563Z,3.25
2022-08-01T16:08:12.116Z,5.13
2022-08-01T16:10:38.872Z,5.07
2022-08-01T16:13:07.393Z,1.65
2022-08-01T16:15:36.629Z,3.80
2022-08-01T16:18:05.994Z,5.40
2022-08-01T16:20:33.185Z,3.33
2022-08-01T16:23:00.294Z,3.05
2022-08-01T16:25:27.048Z,5.15
2022-08-01T16:27:54.024Z,5.35
2022-08-01T16:30:20.740Z,8.00
2022-08-01T16:32:54.695Z,11.32
2022-08-01T16:35:24.597Z,6.93
2022-08-01T16:38:03.781Z,2.85
2022-08-01T16:40:30.420Z,2.63
2022-08-01T16:42:58.519Z,5.47
2022-08-01T16:45:25.712Z,2.92
2022-08-01T16:47:52.776Z,3.20
2022-08-01T16:50:28.155Z,4.05
2022-08-01T16:52:55.664Z,5.30
2022-08-01T16:55:23.054Z,3.63
2022-08-01T16:57:51.521Z,7.15
2022-08-01T17:00:24.198Z,6.32
2022-08-01T17:02:55.178Z,2.55
2022-08-01T17:05:22.691Z,3.20
2022-08-01T17:07:49.809Z,5.00
2022-08-01T17:10:16.581Z,4.38
2022-08-01T17:12:43.858Z,2.05
2022-08-01T17:15:11.334Z,7.82
2022-08-01T17:17:38.338Z,8.95
2022-08-01T17:20:05.608Z,3.88
2022-08-01T17:22:32.660Z,4.88
2022-08-01T17:24:59.326Z,3.30
2022-08-01T17:27:26.678Z,4.15
2022-08-01T17:29:53.339Z,9.73
2022-08-01T17:32:20.651Z,2.75
2022-08-01T17:34:47.499Z,2.80
2022-08-01T17:37:14.803Z,8.13
2022-08-01T17:39:41.586Z,6.50
2022-08-01T17:42:10.649Z,3.38
2022-08-01T17:44:38.103Z,6.47
2022-08-01T17:47:06.837Z,4.15
2022-08-01T17:49:53.903Z,2.35
2022-08-01T17:52:21.923Z,6.60
2022-08-01T17:54:48.792Z,5.72
2022-08-01T17:57:16.073Z,3.75
2022-08-01T17:59:43.772Z,6.45
2022-08-01T18:02:11.219Z,7.40
2022-08-01T18:04:38.855Z,8.10
2022-08-01T18:07:12.337Z,6.15
2022-08-01T18:09:44.184Z,5.80
2022-08-01T18:12:14.944Z,7.22
2022-08-01T18:14:43.825Z,6.00
2022-08-01T18:17:11.828Z,8.50
2022-08-01T18:19:39.373Z,7.00
2022-08-01T18:22:28.848Z,6.65
2022-08-01T18:24:53.758Z,10.30
2022-08-01T18:27:21.101Z,6.55
2022-08-01T18:29:48.715Z,4.53
2022-08-01T18:32:16.366Z,8.68
2022-08-01T18:34:43.110Z,4.93
2022-08-01T18:37:13.410Z,6.57
2022-08-01T18:39:41.826Z,8.05
2022-08-01T18:42:10.668Z,8.40
2022-08-01T18:44:37.392Z,6.30
2022-08-01T18:47:05.121Z,6.50
2022-08-01T18:49:32.368Z,3.65
2022-08-01T18:51:59.607Z,8.57
2022-08-01T18:54:27.285Z,9.00
2022-08-01T18:56:54.297Z,9.18
2022-08-01T18:59:23.841Z,6.20
2022-08-01T19:01:50.557Z,10.48
2022-08-01T19:04:17.338Z,8.88
2022-08-01T19:06:47.705Z,5.70
2022-08-01T19:09:14.658Z,8.65
2022-08-01T19:11:47.686Z,9.23
2022-08-01T19:14:14.358Z,9.23
2022-08-01T19:16:41.108Z,8.60
2022-08-01T19:19:09.357Z,6.03
2022-08-01T19:21:41.489Z,7.20
2022-08-01T19:24:17.575Z,11.60
2022-08-01T19:26:59.213Z,8.55
2022-08-01T19:29:36.055Z,8.63
2022-08-01T19:32:06.305Z,10.13
2022-08-01T19:34:36.445Z,7.88
2022-08-01T19:37:03.692Z,6.05
2022-08-01T19:39:30.423Z,7.47
2022-08-01T19:41:59.890Z,8.93
2022-08-01T19:44:28.700Z,6.78
2022-08-01T19:46:55.519Z,7.93
2022-08-01T19:49:23.211Z,7.95
2022-08-01T19:51:59.327Z,13.02
2022-08-01T19:54:32.646Z,7.70
2022-08-01T19:57:02.527Z,6.40
2022-08-01T19:59:32.667Z,12.88
2022-08-01T20:01:59.984Z,10.70
2022-08-01T20:04:27.627Z,11.85
2022-08-01T20:06:54.740Z,9.40
2022-08-01T20:09:21.922Z,11.05
2022-08-01T20:11:52.531Z,11.77
2022-08-01T20:14:25.102Z,10.02
2022-08-01T20:16:53.901Z,11.93
2022-08-01T20:19:22.240Z,17.77
2022-08-01T20:22:02.572Z,7.72
2022-08-01T20:24:41.374Z,13.57
2022-08-01T20:27:11.735Z,7.63
2022-08-01T20:29:39.687Z,10.05
2022-08-01T20:32:06.836Z,6.95
2022-08-01T20:34:40.137Z,10.85
2022-08-01T20:37:13.232Z,11.38
2022-08-01T20:39:43.277Z,8.15
2022-08-01T20:42:12.790Z,11.65
2022-08-01T20:44:40.547Z,15.30
2022-08-01T20:47:07.240Z,12.63
2022-08-01T20:49:36.631Z,11.45
2022-08-01T20:52:11.989Z,8.73
2022-08-01T20:54:41.435Z,7.32
2022-08-01T20:57:26.267Z,8.90
2022-08-01T21:00:01.938Z,9.40
2022-08-01T21:02:41.426Z,6.10
2022-08-01T21:05:12.366Z,7.45
2022-08-01T21:07:49.013Z,8.80
2022-08-01T21:10:19.256Z,7.85
2022-08-01T21:13:04.075Z,14.00
2022-08-01T21:15:37.675Z,6.88
2022-08-01T21:18:07.691Z,8.82
2022-08-01T21:20:39.443Z,7.22
2022-08-01T21:23:13.036Z,12.57
2022-08-01T21:25:42.439Z,14.32
2022-08-01T21:28:13.824Z,7.00
2022-08-01T21:30:42.005Z,8.63
2022-08-01T21:33:22.328Z,10.27
2022-08-01T21:35:52.448Z,9.23
2022-08-01T21:38:19.552Z,6.43
2022-08-01T21:40:48.164Z,8.88
2022-08-01T21:43:15.216Z,12.63
2022-08-01T21:45:57.705Z,6.50
2022-08-01T21:51:18.829Z,8.95
2022-08-01T21:53:57.413Z,15.05
2022-08-01T21:56:49.049Z,9.30
2022-08-01T21:59:44.286Z,5.32
2022-08-01T22:02:39.072Z,10.43
2022-08-01T22:05:12.405Z,10.63
2022-08-01T22:07:48.229Z,6.03
2022-08-01T22:10:20.413Z,5.97
2022-08-01T22:12:47.498Z,7.83
2022-08-01T22:15:14.838Z,8.15
2022-08-01T22:17:43.155Z,13.63
2022-08-01T22:20:10.623Z,13.63
2022-08-01T22:22:50.866Z,10.27
2022-08-01T22:25:20.491Z,8.35
2022-08-01T22:28:06.481Z,5.22
2022-08-01T22:30:39.715Z,6.93
2022-08-01T22:33:17.016Z,13.35
2022-08-01T22:35:52.534Z,10.52
2022-08-01T22:38:22.553Z,8.77
2022-08-01T22:40:54.571Z,6.10
2022-08-01T22:43:29.144Z,9.50
2022-08-01T22:46:33.683Z,7.55
2022-08-01T22:49:32.094Z,6.28
2022-08-01T22:52:11.238Z,8.65
2022-08-01T22:54:41.102Z,8.32
2022-08-01T22:57:14.296Z,8.65
2022-08-01T23:00:00.352Z,14.43
2022-08-01T23:02:30.600Z,8.07
2022-08-01T23:05:03.053Z,5.53
2022-08-01T23:07:38.960Z,10.03
2022-08-01T23:10:07.529Z,15.18
2022-08-01T23:12:34.640Z,5.93
2022-08-01T23:15:02.314Z,6.55
2022-08-01T23:17:31.214Z,10.07
2022-08-01T23:20:07.121Z,8.82
2022-08-01T23:22:35.452Z,10.75
2022-08-01T23:25:06.893Z,6.68
2022-08-01T23:27:54.424Z,9.32
2022-08-01T23:30:29.525Z,8.52
2022-08-01T23:32:56.629Z,7.05
2022-08-01T23:35:24.775Z,6.22
2022-08-01T23:37:51.943Z,7.88
2022-08-01T23:40:20.155Z,7.97
2022-08-01T23:42:47.090Z,5.75
2022-08-01T23:45:15.088Z,9.48
2022-08-01T23:47:41.830Z,6.68
2022-08-01T23:50:09.137Z,7.72
2022-08-01T23:52:45.956Z,8.55
2022-08-01T23:55:15.888Z,7.43
2022-08-01T23:57:42.978Z,7.25
